sensor_id;sensor_type;location;lat;lon;timestamp;P1;durP1;ratioP1;P2;durP2;ratioP2
6987;SDS011;3534;49.960;8.018;2024-03-02T00:01:23;8.50;;;6.27;;
6987;SDS011;3534;49.960;8.018;2024-03-02T00:03:51;9.03;;;5.43;;
6987;SDS011;3534;49.960;8.018;2024-03-02T00:06:18;5.77;;;5.17;;
6987;SDS011;3534;49.960;8.018;2024-03-02T00:08:46;7.67;;;5.70;;
6987;SDS011;3534;49.960;8.018;2024-03-02T00:11:13;9.10;;;6.30;;
6987;SDS011;3534;49.960;8.018;2024-03-02T00:13:40;7.50;;;6.03;;
6987;SDS011;3534;49.960;8.018;2024-03-02T00:16:07;8.30;;;5.83;;
6987;SDS011;3534;49.960;8.018;2024-03-02T00:18:34;7.10;;;5.63;;
6987;SDS011;3534;49.960;8.018;2024-03-02T00:21:04;7.60;;;5.80;;
6987;SDS011;3534;49.960;8.018;2024-03-02T00:23:34;8.10;;;6.10;;
6987;SDS011;3534;49.960;8.018;2024-03-02T00:26:01;9.07;;;6.33;;
6987;SDS011;3534;49.960;8.018;2024-03-02T00:28:29;10.70;;;7.80;;
6987;SDS011;3534;49.960;8.018;2024-03-02T00:30:59;10.47;;;7.10;;
6987;SDS011;3534;49.960;8.018;2024-03-02T00:33:30;7.53;;;5.50;;
6987;SDS011;3534;49.960;8.018;2024-03-02T00:35:58;8.47;;;6.20;;
6987;SDS011;3534;49.960;8.018;2024-03-02T00:38:27;7.10;;;5.87;;
6987;SDS011;3534;49.960;8.018;2024-03-02T00:40:54;9.73;;;6.43;;
6987;SDS011;3534;49.960;8.018;2024-03-02T00:43:34;8.67;;;6.30;;
6987;SDS011;3534;49.960;8.018;2024-03-02T00:46:08;6.83;;;6.10;;
6987;SDS011;3534;49.960;8.018;2024-03-02T00:48:36;8.10;;;6.60;;
6987;SDS011;3534;49.960;8.018;2024-03-02T00:51:03;9.07;;;7.00;;
6987;SDS011;3534;49.960;8.018;2024-03-02T00:53:32;10.70;;;6.57;;
6987;SDS011;3534;49.960;8.018;2024-03-02T00:55:59;9.47;;;6.07;;
6987;SDS011;3534;49.960;8.018;2024-03-02T00:58:27;9.07;;;6.97;;
6987;SDS011;3534;49.960;8.018;2024-03-02T01:00:53;10.00;;;7.00;;
6987;SDS011;3534;49.960;8.018;2024-03-02T01:03:20;9.00;;;7.00;;
6987;SDS011;3534;49.960;8.018;2024-03-02T01:05:47;10.10;;;6.97;;
6987;SDS011;3534;49.960;8.018;2024-03-02T01:08:13;11.63;;;7.90;;
6987;SDS011;3534;49.960;8.018;2024-03-02T01:10:42;14.40;;;8.10;;
6987;SDS011;3534;49.960;8.018;2024-03-02T01:13:09;12.70;;;9.40;;
6987;SDS011;3534;49.960;8.018;2024-03-02T01:15:35;13.83;;;10.10;;
6987;SDS011;3534;49.960;8.018;2024-03-02T01:18:02;14.67;;;10.23;;
6987;SDS011;3534;49.960;8.018;2024-03-02T01:20:29;9.53;;;7.23;;
6987;SDS011;3534;49.960;8.018;2024-03-02T01:22:56;10.07;;;7.23;;
6987;SDS011;3534;49.960;8.018;2024-03-02T01:25:22;10.40;;;7.20;;
6987;SDS011;3534;49.960;8.018;2024-03-02T01:27:51;13.33;;;7.17;;
6987;SDS011;3534;49.960;8.018;2024-03-02T01:30:18;11.20;;;7.80;;
6987;SDS011;3534;49.960;8.018;2024-03-02T01:32:44;10.37;;;6.50;;
6987;SDS011;3534;49.960;8.018;2024-03-02T01:35:11;8.07;;;6.13;;
6987;SDS011;3534;49.960;8.018;2024-03-02T01:37:38;9.80;;;7.30;;
6987;SDS011;3534;49.960;8.018;2024-03-02T01:40:05;13.47;;;7.23;;
6987;SDS011;3534;49.960;8.018;2024-03-02T01:42:34;16.17;;;10.30;;
6987;SDS011;3534;49.960;8.018;2024-03-02T01:45:03;11.40;;;8.13;;
6987;SDS011;3534;49.960;8.018;2024-03-02T01:47:30;9.60;;;7.17;;
6987;SDS011;3534;49.960;8.018;2024-03-02T01:49:58;12.33;;;8.03;;
6987;SDS011;3534;49.960;8.018;2024-03-02T01:52:26;11.23;;;8.03;;
6987;SDS011;3534;49.960;8.018;2024-03-02T01:54:53;13.63;;;9.60;;
6987;SDS011;3534;49.960;8.018;2024-03-02T01:57:20;13.53;;;8.87;;
6987;SDS011;3534;49.960;8.018;2024-03-02T01:59:46;13.70;;;10.30;;
6987;SDS011;3534;49.960;8.018;2024-03-02T02:02:15;13.13;;;9.03;;
6987;SDS011;3534;49.960;8.018;2024-03-02T02:04:41;18.93;;;11.27;;
6987;SDS011;3534;49.960;8.018;2024-03-02T02:07:09;17.57;;;10.00;;
6987;SDS011;3534;49.960;8.018;2024-03-02T02:09:36;18.30;;;11.43;;
6987;SDS011;3534;49.960;8.018;2024-03-02T02:12:03;16.50;;;10.93;;
6987;SDS011;3534;49.960;8.018;2024-03-02T02:14:31;12.80;;;9.60;;
6987;SDS011;3534;49.960;8.018;2024-03-02T02:16:58;16.67;;;10.17;;
6987;SDS011;3534;49.960;8.018;2024-03-02T02:19:26;16.37;;;10.67;;
6987;SDS011;3534;49.960;8.018;2024-03-02T02:21:54;11.40;;;9.33;;
6987;SDS011;3534;49.960;8.018;2024-03-02T02:24:21;16.67;;;9.50;;
6987;SDS011;3534;49.960;8.018;2024-03-02T02:26:48;13.47;;;9.33;;
6987;SDS011;3534;49.960;8.018;2024-03-02T02:29:14;10.53;;;8.23;;
6987;SDS011;3534;49.960;8.018;2024-03-02T02:31:41;13.07;;;8.83;;
6987;SDS011;3534;49.960;8.018;2024-03-02T02:34:08;11.90;;;7.97;;
6987;SDS011;3534;49.960;8.018;2024-03-02T02:36:36;13.73;;;8.17;;
6987;SDS011;3534;49.960;8.018;2024-03-02T02:39:05;13.33;;;8.60;;
6987;SDS011;3534;49.960;8.018;2024-03-02T02:41:38;10.80;;;8.00;;
6987;SDS011;3534;49.960;8.018;2024-03-02T02:44:05;13.07;;;8.40;;
6987;SDS011;3534;49.960;8.018;2024-03-02T02:46:31;13.63;;;8.03;;
6987;SDS011;3534;49.960;8.018;2024-03-02T02:48:58;12.80;;;8.50;;
6987;SDS011;3534;49.960;8.018;2024-03-02T02:51:25;11.30;;;8.00;;
6987;SDS011;3534;49.960;8.018;2024-03-02T02:53:51;11.80;;;8.47;;
6987;SDS011;3534;49.960;8.018;2024-03-02T02:56:19;12.60;;;8.70;;
6987;SDS011;3534;49.960;8.018;2024-03-02T02:58:47;12.13;;;9.00;;
6987;SDS011;3534;49.960;8.018;2024-03-02T03:01:14;12.20;;;9.00;;
6987;SDS011;3534;49.960;8.018;2024-03-02T03:03:42;11.80;;;8.73;;
6987;SDS011;3534;49.960;8.018;2024-03-02T03:06:08;15.50;;;9.03;;
6987;SDS011;3534;49.960;8.018;2024-03-02T03:08:35;12.30;;;8.47;;
6987;SDS011;3534;49.960;8.018;2024-03-02T03:11:02;16.10;;;9.60;;
6987;SDS011;3534;49.960;8.018;2024-03-02T03:13:31;12.30;;;8.80;;
6987;SDS011;3534;49.960;8.018;2024-03-02T03:15:57;19.10;;;9.03;;
6987;SDS011;3534;49.960;8.018;2024-03-02T03:18:24;19.03;;;9.37;;
6987;SDS011;3534;49.960;8.018;2024-03-02T03:20:51;13.50;;;9.77;;
6987;SDS011;3534;49.960;8.018;2024-03-02T03:23:17;14.67;;;9.20;;
6987;SDS011;3534;49.960;8.018;2024-03-02T03:25:44;12.90;;;9.50;;
6987;SDS011;3534;49.960;8.018;2024-03-02T03:28:11;13.80;;;9.63;;
6987;SDS011;3534;49.960;8.018;2024-03-02T03:30:39;13.50;;;8.60;;
6987;SDS011;3534;49.960;8.018;2024-03-02T03:33:06;12.33;;;8.33;;
6987;SDS011;3534;49.960;8.018;2024-03-02T03:35:32;13.43;;;8.90;;
6987;SDS011;3534;49.960;8.018;2024-03-02T03:37:59;14.67;;;9.70;;
6987;SDS011;3534;49.960;8.018;2024-03-02T03:40:26;16.33;;;10.03;;
6987;SDS011;3534;49.960;8.018;2024-03-02T03:42:53;15.60;;;9.87;;
6987;SDS011;3534;49.960;8.018;2024-03-02T03:45:21;13.63;;;9.30;;
6987;SDS011;3534;49.960;8.018;2024-03-02T03:47:49;20.20;;;10.17;;
6987;SDS011;3534;49.960;8.018;2024-03-02T03:50:15;17.27;;;9.97;;
6987;SDS011;3534;49.960;8.018;2024-03-02T03:52:42;13.60;;;9.23;;
6987;SDS011;3534;49.960;8.018;2024-03-02T03:55:09;18.53;;;10.63;;
6987;SDS011;3534;49.960;8.018;2024-03-02T03:57:35;12.97;;;9.50;;
6987;SDS011;3534;49.960;8.018;2024-03-02T04:00:02;14.40;;;9.70;;
6987;SDS011;3534;49.960;8.018;2024-03-02T04:02:29;17.53;;;11.87;;
6987;SDS011;3534;49.960;8.018;2024-03-02T04:04:57;20.73;;;10.70;;
6987;SDS011;3534;49.960;8.018;2024-03-02T04:07:24;16.63;;;10.83;;
6987;SDS011;3534;49.960;8.018;2024-03-02T04:09:51;20.57;;;11.83;;
6987;SDS011;3534;49.960;8.018;2024-03-02T04:12:17;15.17;;;10.63;;
6987;SDS011;3534;49.960;8.018;2024-03-02T04:14:44;16.60;;;10.80;;
6987;SDS011;3534;49.960;8.018;2024-03-02T04:17:10;16.60;;;11.27;;
6987;SDS011;3534;49.960;8.018;2024-03-02T04:19:38;14.00;;;10.40;;
6987;SDS011;3534;49.960;8.018;2024-03-02T04:22:06;14.70;;;10.50;;
6987;SDS011;3534;49.960;8.018;2024-03-02T04:24:33;19.90;;;11.97;;
6987;SDS011;3534;49.960;8.018;2024-03-02T04:26:59;16.17;;;10.40;;
6987;SDS011;3534;49.960;8.018;2024-03-02T04:29:27;18.70;;;12.00;;
6987;SDS011;3534;49.960;8.018;2024-03-02T04:31:54;17.93;;;11.17;;
6987;SDS011;3534;49.960;8.018;2024-03-02T04:34:20;17.80;;;11.33;;
6987;SDS011;3534;49.960;8.018;2024-03-02T04:36:47;17.47;;;11.53;;
6987;SDS011;3534;49.960;8.018;2024-03-02T04:39:16;18.00;;;11.73;;
6987;SDS011;3534;49.960;8.018;2024-03-02T04:41:43;15.20;;;11.00;;
6987;SDS011;3534;49.960;8.018;2024-03-02T04:44:09;15.33;;;11.40;;
6987;SDS011;3534;49.960;8.018;2024-03-02T04:46:36;19.20;;;12.70;;
6987;SDS011;3534;49.960;8.018;2024-03-02T04:49:02;18.33;;;12.33;;
6987;SDS011;3534;49.960;8.018;2024-03-02T04:51:29;19.50;;;11.83;;
6987;SDS011;3534;49.960;8.018;2024-03-02T04:53:56;17.60;;;12.40;;
6987;SDS011;3534;49.960;8.018;2024-03-02T04:56:24;17.27;;;11.40;;
6987;SDS011;3534;49.960;8.018;2024-03-02T04:59:08;20.17;;;12.83;;
6987;SDS011;3534;49.960;8.018;2024-03-02T05:01:35;20.10;;;12.10;;
6987;SDS011;3534;49.960;8.018;2024-03-02T05:04:02;16.57;;;11.70;;
6987;SDS011;3534;49.960;8.018;2024-03-02T05:06:28;20.80;;;12.50;;
6987;SDS011;3534;49.960;8.018;2024-03-02T05:08:56;18.97;;;11.50;;
6987;SDS011;3534;49.960;8.018;2024-03-02T05:11:24;18.30;;;11.57;;
6987;SDS011;3534;49.960;8.018;2024-03-02T05:14:24;17.83;;;12.57;;
6987;SDS011;3534;49.960;8.018;2024-03-02T05:16:50;18.80;;;12.53;;
6987;SDS011;3534;49.960;8.018;2024-03-02T05:19:17;21.20;;;12.30;;
6987;SDS011;3534;49.960;8.018;2024-03-02T05:21:44;19.73;;;11.90;;
6987;SDS011;3534;49.960;8.018;2024-03-02T05:24:11;17.87;;;12.37;;
6987;SDS011;3534;49.960;8.018;2024-03-02T05:26:39;18.60;;;12.87;;
6987;SDS011;3534;49.960;8.018;2024-03-02T05:29:05;19.93;;;12.97;;
6987;SDS011;3534;49.960;8.018;2024-03-02T05:31:32;18.47;;;13.03;;
6987;SDS011;3534;49.960;8.018;2024-03-02T05:33:58;20.97;;;13.40;;
6987;SDS011;3534;49.960;8.018;2024-03-02T05:36:25;20.43;;;13.90;;
6987;SDS011;3534;49.960;8.018;2024-03-02T05:38:52;22.50;;;14.30;;
6987;SDS011;3534;49.960;8.018;2024-03-02T05:41:19;18.77;;;13.90;;
6987;SDS011;3534;49.960;8.018;2024-03-02T05:43:47;19.30;;;12.97;;
6987;SDS011;3534;49.960;8.018;2024-03-02T05:46:14;20.70;;;13.37;;
6987;SDS011;3534;49.960;8.018;2024-03-02T05:48:41;20.07;;;13.80;;
6987;SDS011;3534;49.960;8.018;2024-03-02T05:51:07;18.57;;;13.23;;
6987;SDS011;3534;49.960;8.018;2024-03-02T05:53:34;20.00;;;12.83;;
6987;SDS011;3534;49.960;8.018;2024-03-02T05:56:03;20.20;;;13.10;;
6987;SDS011;3534;49.960;8.018;2024-03-02T05:58:30;18.77;;;12.93;;
6987;SDS011;3534;49.960;8.018;2024-03-02T06:01:09;18.60;;;13.30;;
6987;SDS011;3534;49.960;8.018;2024-03-02T06:03:36;21.60;;;12.90;;
6987;SDS011;3534;49.960;8.018;2024-03-02T06:06:02;24.83;;;13.43;;
6987;SDS011;3534;49.960;8.018;2024-03-02T06:08:30;23.07;;;13.87;;
6987;SDS011;3534;49.960;8.018;2024-03-02T06:10:57;17.87;;;12.60;;
6987;SDS011;3534;49.960;8.018;2024-03-02T06:13:23;24.00;;;13.97;;
6987;SDS011;3534;49.960;8.018;2024-03-02T06:15:51;20.77;;;14.43;;
6987;SDS011;3534;49.960;8.018;2024-03-02T06:18:19;20.70;;;13.20;;
6987;SDS011;3534;49.960;8.018;2024-03-02T06:20:46;15.53;;;12.50;;
6987;SDS011;3534;49.960;8.018;2024-03-02T06:23:12;18.87;;;12.80;;
6987;SDS011;3534;49.960;8.018;2024-03-02T06:25:39;24.20;;;14.20;;
6987;SDS011;3534;49.960;8.018;2024-03-02T06:28:06;17.87;;;12.70;;
6987;SDS011;3534;49.960;8.018;2024-03-02T06:30:32;17.10;;;12.40;;
6987;SDS011;3534;49.960;8.018;2024-03-02T06:32:59;17.30;;;11.80;;
6987;SDS011;3534;49.960;8.018;2024-03-02T06:35:27;20.63;;;13.57;;
6987;SDS011;3534;49.960;8.018;2024-03-02T06:37:53;19.27;;;12.80;;
6987;SDS011;3534;49.960;8.018;2024-03-02T06:40:20;20.77;;;13.23;;
6987;SDS011;3534;49.960;8.018;2024-03-02T06:42:47;17.53;;;11.40;;
6987;SDS011;3534;49.960;8.018;2024-03-02T06:45:13;21.00;;;14.03;;
6987;SDS011;3534;49.960;8.018;2024-03-02T06:47:40;18.80;;;13.10;;
6987;SDS011;3534;49.960;8.018;2024-03-02T06:50:07;16.17;;;11.27;;
6987;SDS011;3534;49.960;8.018;2024-03-02T06:52:36;17.23;;;12.03;;
6987;SDS011;3534;49.960;8.018;2024-03-02T06:55:02;17.57;;;11.00;;
6987;SDS011;3534;49.960;8.018;2024-03-02T06:57:30;17.57;;;12.40;;
6987;SDS011;3534;49.960;8.018;2024-03-02T06:59:57;14.43;;;10.67;;
6987;SDS011;3534;49.960;8.018;2024-03-02T07:02:24;16.10;;;10.97;;
6987;SDS011;3534;49.960;8.018;2024-03-02T07:04:51;17.07;;;11.40;;
6987;SDS011;3534;49.960;8.018;2024-03-02T07:07:18;19.10;;;12.30;;
6987;SDS011;3534;49.960;8.018;2024-03-02T07:09:47;16.10;;;11.00;;
6987;SDS011;3534;49.960;8.018;2024-03-02T07:12:13;21.83;;;12.63;;
6987;SDS011;3534;49.960;8.018;2024-03-02T07:14:40;20.13;;;13.13;;
6987;SDS011;3534;49.960;8.018;2024-03-02T07:17:24;22.70;;;14.10;;
6987;SDS011;3534;49.960;8.018;2024-03-02T07:19:51;20.07;;;13.70;;
6987;SDS011;3534;49.960;8.018;2024-03-02T07:22:18;23.03;;;13.40;;
6987;SDS011;3534;49.960;8.018;2024-03-02T07:24:46;26.10;;;14.53;;
6987;SDS011;3534;49.960;8.018;2024-03-02T07:27:14;21.73;;;13.43;;
6987;SDS011;3534;49.960;8.018;2024-03-02T07:29:41;17.80;;;13.20;;
6987;SDS011;3534;49.960;8.018;2024-03-02T07:32:09;18.10;;;12.37;;
6987;SDS011;3534;49.960;8.018;2024-03-02T07:34:36;18.47;;;13.03;;
6987;SDS011;3534;49.960;8.018;2024-03-02T07:37:03;22.70;;;13.80;;
6987;SDS011;3534;49.960;8.018;2024-03-02T07:39:30;19.57;;;13.27;;
6987;SDS011;3534;49.960;8.018;2024-03-02T07:41:58;19.30;;;12.90;;
6987;SDS011;3534;49.960;8.018;2024-03-02T07:44:25;18.93;;;12.20;;
6987;SDS011;3534;49.960;8.018;2024-03-02T07:46:52;20.03;;;12.57;;
6987;SDS011;3534;49.960;8.018;2024-03-02T07:49:19;15.33;;;10.50;;
6987;SDS011;3534;49.960;8.018;2024-03-02T07:51:45;15.77;;;10.50;;
6987;SDS011;3534;49.960;8.018;2024-03-02T07:54:12;17.30;;;10.97;;
6987;SDS011;3534;49.960;8.018;2024-03-02T07:56:39;22.30;;;11.30;;
6987;SDS011;3534;49.960;8.018;2024-03-02T07:59:07;20.30;;;11.43;;
6987;SDS011;3534;49.960;8.018;2024-03-02T08:01:34;17.30;;;11.37;;
6987;SDS011;3534;49.960;8.018;2024-03-02T08:04:01;17.90;;;11.77;;
6987;SDS011;3534;49.960;8.018;2024-03-02T08:06:29;16.90;;;11.80;;
6987;SDS011;3534;49.960;8.018;2024-03-02T08:08:56;16.53;;;10.80;;
6987;SDS011;3534;49.960;8.018;2024-03-02T08:11:24;21.37;;;12.50;;
6987;SDS011;3534;49.960;8.018;2024-03-02T08:13:52;19.30;;;12.77;;
6987;SDS011;3534;49.960;8.018;2024-03-02T08:16:21;15.00;;;10.77;;
6987;SDS011;3534;49.960;8.018;2024-03-02T08:18:50;18.80;;;10.30;;
6987;SDS011;3534;49.960;8.018;2024-03-02T08:21:17;19.83;;;12.37;;
6987;SDS011;3534;49.960;8.018;2024-03-02T08:23:44;23.53;;;11.90;;
6987;SDS011;3534;49.960;8.018;2024-03-02T08:26:10;19.03;;;11.50;;
6987;SDS011;3534;49.960;8.018;2024-03-02T08:28:37;18.90;;;11.87;;
6987;SDS011;3534;49.960;8.018;2024-03-02T08:31:05;18.57;;;11.07;;
6987;SDS011;3534;49.960;8.018;2024-03-02T08:33:33;15.93;;;11.13;;
6987;SDS011;3534;49.960;8.018;2024-03-02T08:36:00;17.50;;;9.90;;
6987;SDS011;3534;49.960;8.018;2024-03-02T08:38:27;14.00;;;8.80;;
6987;SDS011;3534;49.960;8.018;2024-03-02T08:40:54;12.50;;;9.27;;
6987;SDS011;3534;49.960;8.018;2024-03-02T08:43:21;15.20;;;9.40;;
6987;SDS011;3534;49.960;8.018;2024-03-02T08:45:48;13.63;;;8.60;;
6987;SDS011;3534;49.960;8.018;2024-03-02T08:48:15;15.60;;;9.97;;
6987;SDS011;3534;49.960;8.018;2024-03-02T08:50:43;11.13;;;8.43;;
6987;SDS011;3534;49.960;8.018;2024-03-02T08:53:10;15.47;;;8.90;;
6987;SDS011;3534;49.960;8.018;2024-03-02T08:55:37;12.17;;;9.00;;
6987;SDS011;3534;49.960;8.018;2024-03-02T08:58:03;14.23;;;10.30;;
6987;SDS011;3534;49.960;8.018;2024-03-02T09:00:30;10.63;;;8.40;;
6987;SDS011;3534;49.960;8.018;2024-03-02T09:02:57;13.07;;;8.87;;
6987;SDS011;3534;49.960;8.018;2024-03-02T09:05:23;14.17;;;10.47;;
6987;SDS011;3534;49.960;8.018;2024-03-02T09:07:51;15.83;;;10.40;;
6987;SDS011;3534;49.960;8.018;2024-03-02T09:10:18;17.17;;;9.93;;
6987;SDS011;3534;49.960;8.018;2024-03-02T09:12:45;15.57;;;10.30;;
6987;SDS011;3534;49.960;8.018;2024-03-02T09:15:11;14.23;;;10.77;;
6987;SDS011;3534;49.960;8.018;2024-03-02T09:17:38;14.20;;;10.73;;
6987;SDS011;3534;49.960;8.018;2024-03-02T09:20:05;18.20;;;11.53;;
6987;SDS011;3534;49.960;8.018;2024-03-02T09:22:32;18.20;;;10.33;;
6987;SDS011;3534;49.960;8.018;2024-03-02T09:25:00;14.37;;;9.80;;
6987;SDS011;3534;49.960;8.018;2024-03-02T09:27:27;16.03;;;9.73;;
6987;SDS011;3534;49.960;8.018;2024-03-02T09:29:54;13.53;;;10.37;;
6987;SDS011;3534;49.960;8.018;2024-03-02T09:32:20;21.00;;;10.57;;
6987;SDS011;3534;49.960;8.018;2024-03-02T09:34:48;17.13;;;10.87;;
6987;SDS011;3534;49.960;8.018;2024-03-02T09:37:15;13.90;;;9.17;;
6987;SDS011;3534;49.960;8.018;2024-03-02T09:39:43;15.40;;;10.70;;
6987;SDS011;3534;49.960;8.018;2024-03-02T09:42:11;18.43;;;10.57;;
6987;SDS011;3534;49.960;8.018;2024-03-02T09:44:39;16.00;;;10.43;;
6987;SDS011;3534;49.960;8.018;2024-03-02T09:47:06;15.83;;;9.73;;
6987;SDS011;3534;49.960;8.018;2024-03-02T09:49:34;15.03;;;10.83;;
6987;SDS011;3534;49.960;8.018;2024-03-02T09:52:01;14.50;;;10.50;;
6987;SDS011;3534;49.960;8.018;2024-03-02T09:54:30;15.80;;;10.10;;
6987;SDS011;3534;49.960;8.018;2024-03-02T09:56:57;13.87;;;9.60;;
6987;SDS011;3534;49.960;8.018;2024-03-02T09:59:27;14.20;;;10.50;;
6987;SDS011;3534;49.960;8.018;2024-03-02T10:01:55;15.80;;;11.00;;
6987;SDS011;3534;49.960;8.018;2024-03-02T10:04:23;14.30;;;10.60;;
6987;SDS011;3534;49.960;8.018;2024-03-02T10:06:51;12.67;;;9.30;;
6987;SDS011;3534;49.960;8.018;2024-03-02T10:09:26;14.53;;;9.90;;
6987;SDS011;3534;49.960;8.018;2024-03-02T10:11:53;15.47;;;10.63;;
6987;SDS011;3534;49.960;8.018;2024-03-02T10:14:31;22.87;;;9.60;;
6987;SDS011;3534;49.960;8.018;2024-03-02T10:17:01;15.80;;;9.47;;
6987;SDS011;3534;49.960;8.018;2024-03-02T10:19:28;14.27;;;10.03;;
6987;SDS011;3534;49.960;8.018;2024-03-02T10:21:58;16.73;;;10.70;;
6987;SDS011;3534;49.960;8.018;2024-03-02T10:24:25;16.40;;;10.67;;
6987;SDS011;3534;49.960;8.018;2024-03-02T10:26:52;13.87;;;10.20;;
6987;SDS011;3534;49.960;8.018;2024-03-02T10:29:19;13.97;;;10.80;;
6987;SDS011;3534;49.960;8.018;2024-03-02T10:31:47;17.00;;;10.90;;
6987;SDS011;3534;49.960;8.018;2024-03-02T10:34:14;13.40;;;9.57;;
6987;SDS011;3534;49.960;8.018;2024-03-02T10:36:42;10.43;;;8.60;;
6987;SDS011;3534;49.960;8.018;2024-03-02T10:39:10;11.43;;;9.07;;
6987;SDS011;3534;49.960;8.018;2024-03-02T10:41:40;13.00;;;9.20;;
6987;SDS011;3534;49.960;8.018;2024-03-02T10:44:08;18.37;;;9.20;;
6987;SDS011;3534;49.960;8.018;2024-03-02T10:46:36;13.33;;;9.50;;
6987;SDS011;3534;49.960;8.018;2024-03-02T10:49:04;9.57;;;8.57;;
6987;SDS011;3534;49.960;8.018;2024-03-02T10:51:32;13.70;;;9.50;;
6987;SDS011;3534;49.960;8.018;2024-03-02T10:54:01;11.43;;;9.10;;
6987;SDS011;3534;49.960;8.018;2024-03-02T10:56:30;17.57;;;10.10;;
6987;SDS011;3534;49.960;8.018;2024-03-02T10:59:01;12.23;;;8.80;;
6987;SDS011;3534;49.960;8.018;2024-03-02T11:01:29;23.10;;;9.20;;
6987;SDS011;3534;49.960;8.018;2024-03-02T11:03:59;15.43;;;9.50;;
6987;SDS011;3534;49.960;8.018;2024-03-02T11:06:29;15.30;;;10.23;;
6987;SDS011;3534;49.960;8.018;2024-03-02T11:09:00;13.23;;;9.43;;
6987;SDS011;3534;49.960;8.018;2024-03-02T11:11:32;12.47;;;8.93;;
6987;SDS011;3534;49.960;8.018;2024-03-02T11:14:01;12.73;;;9.30;;
6987;SDS011;3534;49.960;8.018;2024-03-02T11:16:34;13.87;;;9.30;;
6987;SDS011;3534;49.960;8.018;2024-03-02T11:19:02;14.47;;;9.43;;
6987;SDS011;3534;49.960;8.018;2024-03-02T11:21:32;12.80;;;9.50;;
6987;SDS011;3534;49.960;8.018;2024-03-02T11:24:00;16.20;;;9.90;;
6987;SDS011;3534;49.960;8.018;2024-03-02T11:26:27;15.73;;;8.97;;
6987;SDS011;3534;49.960;8.018;2024-03-02T11:28:54;12.87;;;9.50;;
6987;SDS011;3534;49.960;8.018;2024-03-02T11:31:24;14.00;;;9.90;;
6987;SDS011;3534;49.960;8.018;2024-03-02T11:34:29;11.67;;;9.17;;
6987;SDS011;3534;49.960;8.018;2024-03-02T11:36:58;12.80;;;9.70;;
6987;SDS011;3534;49.960;8.018;2024-03-02T11:39:25;13.07;;;8.93;;
6987;SDS011;3534;49.960;8.018;2024-03-02T11:41:51;12.90;;;9.67;;
6987;SDS011;3534;49.960;8.018;2024-03-02T11:44:18;12.53;;;9.23;;
6987;SDS011;3534;49.960;8.018;2024-03-02T11:46:44;15.57;;;9.53;;
6987;SDS011;3534;49.960;8.018;2024-03-02T11:49:13;14.20;;;9.87;;
6987;SDS011;3534;49.960;8.018;2024-03-02T11:51:49;13.20;;;9.80;;
6987;SDS011;3534;49.960;8.018;2024-03-02T11:54:20;12.80;;;9.23;;
6987;SDS011;3534;49.960;8.018;2024-03-02T11:56:47;11.10;;;8.70;;
6987;SDS011;3534;49.960;8.018;2024-03-02T11:59:14;12.10;;;8.67;;
6987;SDS011;3534;49.960;8.018;2024-03-02T12:01:41;17.93;;;8.80;;
6987;SDS011;3534;49.960;8.018;2024-03-02T12:04:09;12.93;;;8.90;;
6987;SDS011;3534;49.960;8.018;2024-03-02T12:06:36;10.50;;;8.80;;
6987;SDS011;3534;49.960;8.018;2024-03-02T12:09:04;11.17;;;8.57;;
6987;SDS011;3534;49.960;8.018;2024-03-02T12:11:33;9.63;;;7.73;;
6987;SDS011;3534;49.960;8.018;2024-03-02T12:13:59;11.47;;;7.97;;
6987;SDS011;3534;49.960;8.018;2024-03-02T12:16:26;12.87;;;8.30;;
6987;SDS011;3534;49.960;8.018;2024-03-02T12:18:52;9.27;;;7.70;;
6987;SDS011;3534;49.960;8.018;2024-03-02T12:21:20;11.47;;;8.40;;
6987;SDS011;3534;49.960;8.018;2024-03-02T12:23:47;7.47;;;6.50;;
6987;SDS011;3534;49.960;8.018;2024-03-02T12:26:15;10.80;;;7.07;;
6987;SDS011;3534;49.960;8.018;2024-03-02T12:28:43;10.40;;;6.70;;
6987;SDS011;3534;49.960;8.018;2024-03-02T12:31:10;11.80;;;8.47;;
6987;SDS011;3534;49.960;8.018;2024-03-02T12:33:36;8.47;;;6.20;;
6987;SDS011;3534;49.960;8.018;2024-03-02T12:36:03;10.93;;;6.30;;
6987;SDS011;3534;49.960;8.018;2024-03-02T12:38:30;6.57;;;5.87;;
6987;SDS011;3534;49.960;8.018;2024-03-02T12:40:57;6.60;;;5.07;;
6987;SDS011;3534;49.960;8.018;2024-03-02T12:43:24;7.00;;;5.07;;
6987;SDS011;3534;49.960;8.018;2024-03-02T12:45:56;7.93;;;6.03;;
6987;SDS011;3534;49.960;8.018;2024-03-02T12:48:23;8.67;;;6.20;;
6987;SDS011;3534;49.960;8.018;2024-03-02T12:50:51;8.60;;;6.37;;
6987;SDS011;3534;49.960;8.018;2024-03-02T12:53:18;6.43;;;5.53;;
6987;SDS011;3534;49.960;8.018;2024-03-02T12:55:47;5.67;;;4.93;;
6987;SDS011;3534;49.960;8.018;2024-03-02T12:58:18;5.60;;;5.00;;
6987;SDS011;3534;49.960;8.018;2024-03-02T13:00:46;7.67;;;6.00;;
6987;SDS011;3534;49.960;8.018;2024-03-02T13:03:14;8.77;;;6.50;;
6987;SDS011;3534;49.960;8.018;2024-03-02T13:05:43;8.57;;;6.47;;
6987;SDS011;3534;49.960;8.018;2024-03-02T13:08:15;9.53;;;7.20;;
6987;SDS011;3534;49.960;8.018;2024-03-02T13:10:42;7.93;;;6.00;;
6987;SDS011;3534;49.960;8.018;2024-03-02T13:13:09;7.80;;;6.50;;
6987;SDS011;3534;49.960;8.018;2024-03-02T13:15:35;6.97;;;5.57;;
6987;SDS011;3534;49.960;8.018;2024-03-02T13:18:02;7.67;;;6.03;;
6987;SDS011;3534;49.960;8.018;2024-03-02T13:20:31;7.60;;;6.40;;
6987;SDS011;3534;49.960;8.018;2024-03-02T13:22:58;9.30;;;6.47;;
6987;SDS011;3534;49.960;8.018;2024-03-02T13:25:25;8.90;;;5.43;;
6987;SDS011;3534;49.960;8.018;2024-03-02T13:27:51;8.33;;;5.13;;
6987;SDS011;3534;49.960;8.018;2024-03-02T13:30:18;7.03;;;4.70;;
6987;SDS011;3534;49.960;8.018;2024-03-02T13:32:45;7.47;;;4.93;;
6987;SDS011;3534;49.960;8.018;2024-03-02T13:35:11;6.07;;;4.40;;
6987;SDS011;3534;49.960;8.018;2024-03-02T13:37:39;11.03;;;4.70;;
6987;SDS011;3534;49.960;8.018;2024-03-02T13:40:06;5.20;;;3.90;;
6987;SDS011;3534;49.960;8.018;2024-03-02T13:42:38;6.13;;;4.30;;
6987;SDS011;3534;49.960;8.018;2024-03-02T13:45:05;11.00;;;4.47;;
6987;SDS011;3534;49.960;8.018;2024-03-02T13:47:32;5.67;;;4.27;;
6987;SDS011;3534;49.960;8.018;2024-03-02T13:49:58;6.07;;;4.40;;
6987;SDS011;3534;49.960;8.018;2024-03-02T13:52:27;5.43;;;4.57;;
6987;SDS011;3534;49.960;8.018;2024-03-02T13:54:54;6.77;;;4.40;;
6987;SDS011;3534;49.960;8.018;2024-03-02T13:57:21;4.87;;;3.90;;
6987;SDS011;3534;49.960;8.018;2024-03-02T13:59:48;6.73;;;4.27;;
6987;SDS011;3534;49.960;8.018;2024-03-02T14:02:15;5.10;;;3.90;;
6987;SDS011;3534;49.960;8.018;2024-03-02T14:04:42;10.33;;;3.90;;
6987;SDS011;3534;49.960;8.018;2024-03-02T14:07:09;5.53;;;4.77;;
6987;SDS011;3534;49.960;8.018;2024-03-02T14:09:37;6.10;;;3.63;;
6987;SDS011;3534;49.960;8.018;2024-03-02T14:12:05;5.60;;;4.30;;
6987;SDS011;3534;49.960;8.018;2024-03-02T14:14:33;5.97;;;3.70;;
6987;SDS011;3534;49.960;8.018;2024-03-02T14:16:59;4.33;;;3.30;;
6987;SDS011;3534;49.960;8.018;2024-03-02T14:19:29;4.60;;;3.03;;
6987;SDS011;3534;49.960;8.018;2024-03-02T14:21:56;4.17;;;3.10;;
6987;SDS011;3534;49.960;8.018;2024-03-02T14:24:22;3.43;;;2.53;;
6987;SDS011;3534;49.960;8.018;2024-03-02T14:26:50;4.10;;;2.80;;
6987;SDS011;3534;49.960;8.018;2024-03-02T14:29:19;5.47;;;2.47;;
6987;SDS011;3534;49.960;8.018;2024-03-02T14:31:45;4.30;;;2.40;;
6987;SDS011;3534;49.960;8.018;2024-03-02T14:34:13;5.73;;;2.53;;
6987;SDS011;3534;49.960;8.018;2024-03-02T14:36:39;4.27;;;2.60;;
6987;SDS011;3534;49.960;8.018;2024-03-02T14:39:08;3.80;;;2.40;;
6987;SDS011;3534;49.960;8.018;2024-03-02T14:41:35;3.33;;;1.87;;
6987;SDS011;3534;49.960;8.018;2024-03-02T14:44:02;1.77;;;1.43;;
6987;SDS011;3534;49.960;8.018;2024-03-02T14:46:29;2.13;;;1.60;;
6987;SDS011;3534;49.960;8.018;2024-03-02T14:48:56;1.90;;;1.57;;
6987;SDS011;3534;49.960;8.018;2024-03-02T14:51:23;3.43;;;1.73;;
6987;SDS011;3534;49.960;8.018;2024-03-02T14:53:50;2.20;;;1.70;;
6987;SDS011;3534;49.960;8.018;2024-03-02T14:56:17;4.20;;;2.30;;
6987;SDS011;3534;49.960;8.018;2024-03-02T14:58:44;3.10;;;2.03;;
6987;SDS011;3534;49.960;8.018;2024-03-02T15:01:10;2.40;;;1.80;;